sensor_id;sensor_type;location;lat;lon;timestamp;pressure;altitude;pressure_sealevel;temperature;humidity
53758;BME280;39674;59.860;30.672;2022-11-09T00:01:36;100479.03;;;5.47;100.00
53758;BME280;39674;59.860;30.672;2022-11-09T00:04:09;100403.03;;;4.96;100.00
53758;BME280;39674;59.860;30.672;2022-11-09T00:06:48;100441.59;;;5.18;100.00
53758;BME280;39674;59.860;30.672;2022-11-09T00:09:43;100485.06;;;5.49;100.00
53758;BME280;39674;59.860;30.672;2022-11-09T00:12:31;100466.25;;;5.38;100.00
53758;BME280;39674;59.860;30.672;2022-11-09T00:15:02;100380.19;;;4.75;100.00
53758;BME280;39674;59.860;30.672;2022-11-09T00:17:49;100423.81;;;5.01;100.00
53758;BME280;39674;59.860;30.672;2022-11-09T00:20:19;100471.09;;;5.23;100.00
53758;BME280;39674;59.860;30.672;2022-11-09T00:22:55;100439.31;;;5.07;100.00
53758;BME280;39674;59.860;30.672;2022-11-09T00:25:27;100448.84;;;5.10;100.00
53758;BME280;39674;59.860;30.672;2022-11-09T00:28:00;100499.47;;;5.36;100.00
53758;BME280;39674;59.860;30.672;2022-11-09T00:30:31;100487.41;;;5.32;100.00
53758;BME280;39674;59.860;30.672;2022-11-09T00:33:18;100445.38;;;5.09;100.00
53758;BME280;39674;59.860;30.672;2022-11-09T00:35:52;100435.56;;;4.89;100.00
53758;BME280;39674;59.860;30.672;2022-11-09T00:38:29;100432.94;;;4.89;100.00
53758;BME280;39674;59.860;30.672;2022-11-09T00:41:13;100456.31;;;4.95;100.00
53758;BME280;39674;59.860;30.672;2022-11-09T00:43:44;100380.88;;;4.53;100.00
53758;BME280;39674;59.860;30.672;2022-11-09T00:46:35;100494.06;;;5.15;100.00
53758;BME280;39674;59.860;30.672;2022-11-09T00:49:06;100418.75;;;4.70;100.00
53758;BME280;39674;59.860;30.672;2022-11-09T00:51:39;100424.06;;;4.66;100.00
53758;BME280;39674;59.860;30.672;2022-11-09T00:54:30;100381.34;;;4.38;100.00
53758;BME280;39674;59.860;30.672;2022-11-09T00:57:05;100435.53;;;4.62;100.00
53758;BME280;39674;59.860;30.672;2022-11-09T00:59:50;100486.00;;;4.94;100.00
53758;BME280;39674;59.860;30.672;2022-11-09T01:02:27;100498.06;;;4.98;100.00
53758;BME280;39674;59.860;30.672;2022-11-09T01:04:58;100507.63;;;5.00;100.00
53758;BME280;39674;59.860;30.672;2022-11-09T01:07:32;100415.16;;;4.44;100.00
53758;BME280;39674;59.860;30.672;2022-11-09T01:10:17;100396.34;;;4.32;100.00
53758;BME280;39674;59.860;30.672;2022-11-09T01:13:09;100515.50;;;5.00;100.00
53758;BME280;39674;59.860;30.672;2022-11-09T01:15:42;100462.28;;;4.72;100.00
53758;BME280;39674;59.860;30.672;2022-11-09T01:18:15;100395.44;;;4.33;100.00
53758;BME280;39674;59.860;30.672;2022-11-09T01:20:58;100449.56;;;4.60;100.00
53758;BME280;39674;59.860;30.672;2022-11-09T01:23:35;100445.25;;;4.57;100.00
53758;BME280;39674;59.860;30.672;2022-11-09T01:26:12;100471.81;;;4.73;100.00
53758;BME280;39674;59.860;30.672;2022-11-09T01:29:01;100495.03;;;4.84;100.00
53758;BME280;39674;59.860;30.672;2022-11-09T01:31:41;100495.72;;;4.91;100.00
53758;BME280;39674;59.860;30.672;2022-11-09T01:34:19;100471.09;;;4.68;100.00
53758;BME280;39674;59.860;30.672;2022-11-09T01:36:55;100435.03;;;4.49;100.00
53758;BME280;39674;59.860;30.672;2022-11-09T01:39:43;100506.16;;;4.91;100.00
53758;BME280;39674;59.860;30.672;2022-11-09T01:42:14;100474.66;;;4.65;100.00
53758;BME280;39674;59.860;30.672;2022-11-09T01:45:21;100418.06;;;4.34;100.00
53758;BME280;39674;59.860;30.672;2022-11-09T01:48:02;100510.66;;;4.87;100.00
53758;BME280;39674;59.860;30.672;2022-11-09T01:50:45;100476.47;;;4.63;100.00
53758;BME280;39674;59.860;30.672;2022-11-09T01:53:27;100478.28;;;4.61;100.00
53758;BME280;39674;59.860;30.672;2022-11-09T01:56:03;100521.19;;;4.84;100.00
53758;BME280;39674;59.860;30.672;2022-11-09T01:58:52;100481.63;;;4.66;100.00
53758;BME280;39674;59.860;30.672;2022-11-09T02:01:28;100483.53;;;4.61;100.00
53758;BME280;39674;59.860;30.672;2022-11-09T02:04:05;100492.03;;;4.68;100.00
53758;BME280;39674;59.860;30.672;2022-11-09T02:06:45;100434.00;;;4.27;100.00
53758;BME280;39674;59.860;30.672;2022-11-09T02:09:25;100526.44;;;4.84;100.00
53758;BME280;39674;59.860;30.672;2022-11-09T02:12:14;100438.13;;;4.34;100.00
53758;BME280;39674;59.860;30.672;2022-11-09T02:15:12;100483.53;;;4.61;100.00
53758;BME280;39674;59.860;30.672;2022-11-09T02:18:00;100473.47;;;4.47;100.00
53758;BME280;39674;59.860;30.672;2022-11-09T02:20:48;100525.53;;;4.85;100.00
53758;BME280;39674;59.860;30.672;2022-11-09T02:23:48;100432.16;;;4.29;100.00
53758;BME280;39674;59.860;30.672;2022-11-09T02:26:37;100541.94;;;4.90;100.00
53758;BME280;39674;59.860;30.672;2022-11-09T02:29:19;100536.06;;;4.84;100.00
53758;BME280;39674;59.860;30.672;2022-11-09T02:32:02;100471.59;;;4.51;100.00
53758;BME280;39674;59.860;30.672;2022-11-09T02:34:43;100452.88;;;4.37;100.00
53758;BME280;39674;59.860;30.672;2022-11-09T02:37:28;100524.81;;;4.80;100.00
53758;BME280;39674;59.860;30.672;2022-11-09T02:40:11;100502.72;;;4.60;100.00
53758;BME280;39674;59.860;30.672;2022-11-09T02:42:44;100506.25;;;4.59;100.00
53758;BME280;39674;59.860;30.672;2022-11-09T02:45:16;100532.56;;;4.83;100.00
53758;BME280;39674;59.860;30.672;2022-11-09T02:47:47;100438.34;;;4.26;100.00
53758;BME280;39674;59.860;30.672;2022-11-09T02:50:29;100504.13;;;4.72;100.00
53758;BME280;39674;59.860;30.672;2022-11-09T02:53:09;100488.56;;;4.68;100.00
53758;BME280;39674;59.860;30.672;2022-11-09T02:55:45;100461.16;;;4.51;100.00
53758;BME280;39674;59.860;30.672;2022-11-09T02:58:17;100495.47;;;4.70;100.00
53758;BME280;39674;59.860;30.672;2022-11-09T03:00:49;100490.13;;;4.73;100.00
53758;BME280;39674;59.860;30.672;2022-11-09T03:03:25;100529.59;;;4.95;100.00
53758;BME280;39674;59.860;30.672;2022-11-09T03:05:56;100533.00;;;4.97;100.00
53758;BME280;39674;59.860;30.672;2022-11-09T03:08:37;100471.34;;;4.60;100.00
53758;BME280;39674;59.860;30.672;2022-11-09T03:11:10;100458.34;;;4.57;100.00
53758;BME280;39674;59.860;30.672;2022-11-09T03:14:12;100506.13;;;4.92;100.00
53758;BME280;39674;59.860;30.672;2022-11-09T03:17:08;100522.44;;;5.01;100.00
53758;BME280;39674;59.860;30.672;2022-11-09T03:19:59;100521.50;;;5.03;100.00
53758;BME280;39674;59.860;30.672;2022-11-09T03:22:33;100452.97;;;4.62;100.00
53758;BME280;39674;59.860;30.672;2022-11-09T03:25:19;100488.00;;;4.86;100.00
53758;BME280;39674;59.860;30.672;2022-11-09T03:28:07;100486.28;;;4.85;100.00
53758;BME280;39674;59.860;30.672;2022-11-09T03:30:54;100513.56;;;5.05;100.00
53758;BME280;39674;59.860;30.672;2022-11-09T03:33:26;100425.34;;;4.53;100.00
53758;BME280;39674;59.860;30.672;2022-11-09T03:36:00;100481.03;;;4.85;100.00
53758;BME280;39674;59.860;30.672;2022-11-09T03:38:32;100431.41;;;4.55;100.00
53758;BME280;39674;59.860;30.672;2022-11-09T03:41:12;100528.31;;;5.09;100.00
53758;BME280;39674;59.860;30.672;2022-11-09T03:44:16;100410.66;;;4.49;100.00
53758;BME280;39674;59.860;30.672;2022-11-09T03:46:52;100517.00;;;5.07;100.00
53758;BME280;39674;59.860;30.672;2022-11-09T03:49:35;100458.78;;;4.72;100.00
53758;BME280;39674;59.860;30.672;2022-11-09T03:52:36;100519.50;;;5.11;100.00
53758;BME280;39674;59.860;30.672;2022-11-09T03:55:25;100498.19;;;4.95;100.00
53758;BME280;39674;59.860;30.672;2022-11-09T03:58:05;100457.88;;;4.73;100.00
53758;BME280;39674;59.860;30.672;2022-11-09T04:00:39;100486.47;;;4.79;100.00
53758;BME280;39674;59.860;30.672;2022-11-09T04:03:37;100474.00;;;4.87;100.00
53758;BME280;39674;59.860;30.672;2022-11-09T04:06:08;100522.13;;;5.10;100.00
53758;BME280;39674;59.860;30.672;2022-11-09T04:08:46;100487.16;;;4.86;100.00
53758;BME280;39674;59.860;30.672;2022-11-09T04:11:35;100476.69;;;4.86;100.00
53758;BME280;39674;59.860;30.672;2022-11-09T04:14:10;100486.28;;;4.85;100.00
53758;BME280;39674;59.860;30.672;2022-11-09T04:16:46;100442.31;;;4.68;100.00
53758;BME280;39674;59.860;30.672;2022-11-09T04:19:20;100514.19;;;5.13;100.00
53758;BME280;39674;59.860;30.672;2022-11-09T04:21:49;100454.25;;;4.77;100.00
53758;BME280;39674;59.860;30.672;2022-11-09T04:24:21;100476.56;;;4.89;100.00
53758;BME280;39674;59.860;30.672;2022-11-09T04:26:59;100402.00;;;4.47;100.00
53758;BME280;39674;59.860;30.672;2022-11-09T04:29:38;100471.44;;;4.86;100.00
53758;BME280;39674;59.860;30.672;2022-11-09T04:32:19;100395.16;;;4.43;100.00
53758;BME280;39674;59.860;30.672;2022-11-09T04:35:00;100467.13;;;4.83;100.00
53758;BME280;39674;59.860;30.672;2022-11-09T04:37:35;100441.47;;;4.68;100.00
53758;BME280;39674;59.860;30.672;2022-11-09T04:40:18;100474.00;;;4.87;100.00
53758;BME280;39674;59.860;30.672;2022-11-09T04:42:53;100446.66;;;4.69;100.00
53758;BME280;39674;59.860;30.672;2022-11-09T04:45:32;100464.56;;;4.81;100.00
53758;BME280;39674;59.860;30.672;2022-11-09T04:48:05;100468.72;;;4.89;100.00
53758;BME280;39674;59.860;30.672;2022-11-09T04:50:35;100499.38;;;5.12;100.00
53758;BME280;39674;59.860;30.672;2022-11-09T04:53:13;100489.75;;;5.12;100.00
53758;BME280;39674;59.860;30.672;2022-11-09T04:55:50;100442.59;;;4.87;100.00
53758;BME280;39674;59.860;30.672;2022-11-09T04:58:22;100480.25;;;5.10;100.00
53758;BME280;39674;59.860;30.672;2022-11-09T05:01:01;100447.72;;;4.90;100.00
53758;BME280;39674;59.860;30.672;2022-11-09T05:03:41;100434.25;;;4.76;100.00
53758;BME280;39674;59.860;30.672;2022-11-09T05:06:28;100455.69;;;4.87;100.00
53758;BME280;39674;59.860;30.672;2022-11-09T05:09:06;100454.81;;;4.87;100.00
53758;BME280;39674;59.860;30.672;2022-11-09T05:11:44;100423.09;;;4.69;100.00
53758;BME280;39674;59.860;30.672;2022-11-09T05:14:17;100499.59;;;5.06;100.00
53758;BME280;39674;59.860;30.672;2022-11-09T05:16:48;100489.06;;;5.07;100.00
53758;BME280;39674;59.860;30.672;2022-11-09T05:19:16;100455.69;;;4.87;100.00
53758;BME280;39674;59.860;30.672;2022-11-09T05:21:50;100437.56;;;4.81;100.00
53758;BME280;39674;59.860;30.672;2022-11-09T05:24:31;100482.97;;;5.07;100.00
53758;BME280;39674;59.860;30.672;2022-11-09T05:27:08;100453.88;;;4.89;100.00
53758;BME280;39674;59.860;30.672;2022-11-09T05:29:51;100398.19;;;4.57;100.00
53758;BME280;39674;59.860;30.672;2022-11-09T05:32:28;100367.31;;;4.42;100.00
53758;BME280;39674;59.860;30.672;2022-11-09T05:35:08;100407.53;;;4.66;100.00
53758;BME280;39674;59.860;30.672;2022-11-09T05:37:41;100361.38;;;4.37;100.00
53758;BME280;39674;59.860;30.672;2022-11-09T05:40:15;100444.53;;;4.82;100.00
53758;BME280;39674;59.860;30.672;2022-11-09T05:42:50;100430.63;;;4.80;100.00
53758;BME280;39674;59.860;30.672;2022-11-09T05:45:21;100486.56;;;5.04;100.00
53758;BME280;39674;59.860;30.672;2022-11-09T05:47:56;100437.66;;;4.78;100.00
53758;BME280;39674;59.860;30.672;2022-11-09T05:50:31;100412.06;;;4.59;100.00
53758;BME280;39674;59.860;30.672;2022-11-09T05:53:25;100466.56;;;5.02;100.00
53758;BME280;39674;59.860;30.672;2022-11-09T05:56:01;100430.69;;;4.77;100.00
53758;BME280;39674;59.860;30.672;2022-11-09T05:58:40;100437.56;;;4.81;100.00
53758;BME280;39674;59.860;30.672;2022-11-09T06:01:15;100438.59;;;4.75;100.00
53758;BME280;39674;59.860;30.672;2022-11-09T06:03:52;100368.59;;;4.28;100.00
53758;BME280;39674;59.860;30.672;2022-11-09T06:06:21;100437.75;;;4.75;100.00
53758;BME280;39674;59.860;30.672;2022-11-09T06:08:56;100420.63;;;4.64;100.00
53758;BME280;39674;59.860;30.672;2022-11-09T06:11:37;100370.91;;;4.38;100.00
53758;BME280;39674;59.860;30.672;2022-11-09T06:14:12;100443.78;;;4.77;100.00
53758;BME280;39674;59.860;30.672;2022-11-09T06:16:46;100383.69;;;4.47;100.00
53758;BME280;39674;59.860;30.672;2022-11-09T06:19:24;100430.69;;;4.77;100.00
53758;BME280;39674;59.860;30.672;2022-11-09T06:22:00;100410.28;;;4.61;100.00
53758;BME280;39674;59.860;30.672;2022-11-09T06:24:37;100363.88;;;4.40;100.00
53758;BME280;39674;59.860;30.672;2022-11-09T06:27:15;100417.41;;;4.85;100.00
53758;BME280;39674;59.860;30.672;2022-11-09T06:29:48;100406.56;;;4.69;100.00
53758;BME280;39674;59.860;30.672;2022-11-09T06:32:21;100385.84;;;4.62;100.00
53758;BME280;39674;59.860;30.672;2022-11-09T06:34:57;100409.00;;;4.73;100.00
53758;BME280;39674;59.860;30.672;2022-11-09T06:37:28;100401.00;;;4.78;100.00
53758;BME280;39674;59.860;30.672;2022-11-09T06:39:59;100346.19;;;4.48;100.00
53758;BME280;39674;59.860;30.672;2022-11-09T06:42:37;100357.19;;;4.58;100.00
53758;BME280;39674;59.860;30.672;2022-11-09T06:45:17;100461.56;;;5.21;100.00
53758;BME280;39674;59.860;30.672;2022-11-09T06:48:02;100419.53;;;4.98;100.00
53758;BME280;39674;59.860;30.672;2022-11-09T06:50:39;100422.28;;;4.95;100.00
53758;BME280;39674;59.860;30.672;2022-11-09T06:53:26;100392.06;;;4.85;100.00
53758;BME280;39674;59.860;30.672;2022-11-09T06:56:03;100433.13;;;5.10;100.00
53758;BME280;39674;59.860;30.672;2022-11-09T06:58:33;100345.78;;;4.60;100.00
53758;BME280;39674;59.860;30.672;2022-11-09T07:01:27;100443.09;;;5.25;100.00
53758;BME280;39674;59.860;30.672;2022-11-09T07:04:00;100345.66;;;4.63;100.00
53758;BME280;39674;59.860;30.672;2022-11-09T07:06:56;100336.06;;;4.64;100.00
53758;BME280;39674;59.860;30.672;2022-11-09T07:09:27;100399.50;;;4.97;100.00
53758;BME280;39674;59.860;30.672;2022-11-09T07:12:04;100391.66;;;4.97;100.00
53758;BME280;39674;59.860;30.672;2022-11-09T07:14:39;100341.09;;;4.70;100.00
53758;BME280;39674;59.860;30.672;2022-11-09T07:17:23;100372.56;;;4.95;100.00
53758;BME280;39674;59.860;30.672;2022-11-09T07:19:53;100395.69;;;5.08;100.00
53758;BME280;39674;59.860;30.672;2022-11-09T07:22:31;100362.94;;;4.96;100.00
53758;BME280;39674;59.860;30.672;2022-11-09T07:25:03;100430.50;;;5.37;100.00
53758;BME280;39674;59.860;30.672;2022-11-09T07:27:46;100317.50;;;4.72;100.00
53758;BME280;39674;59.860;30.672;2022-11-09T07:30:17;100310.56;;;4.71;100.00
53758;BME280;39674;59.860;30.672;2022-11-09T07:33:00;100312.25;;;4.72;100.00
53758;BME280;39674;59.860;30.672;2022-11-09T07:35:46;100347.97;;;5.00;100.00
53758;BME280;39674;59.860;30.672;2022-11-09T07:38:21;100372.75;;;5.14;100.00
53758;BME280;39674;59.860;30.672;2022-11-09T07:40:52;100368.41;;;5.15;100.00
53758;BME280;39674;59.860;30.672;2022-11-09T07:43:54;100368.22;;;5.20;100.00
53758;BME280;39674;59.860;30.672;2022-11-09T07:46:26;100305.09;;;4.78;100.00
53758;BME280;39674;59.860;30.672;2022-11-09T07:49:05;100376.81;;;5.23;100.00
53758;BME280;39674;59.860;30.672;2022-11-09T07:51:56;100343.34;;;5.08;100.00
53758;BME280;39674;59.860;30.672;2022-11-09T07:54:29;100301.38;;;4.84;100.00
53758;BME280;39674;59.860;30.672;2022-11-09T07:57:10;100367.09;;;5.27;100.00
53758;BME280;39674;59.860;30.672;2022-11-09T08:01:58;100374.72;;;5.35;100.00
53758;BME280;39674;59.860;30.672;2022-11-09T08:03:00;100366.03;;;5.33;100.00
53758;BME280;39674;59.860;30.672;2022-11-09T08:05:48;100363.50;;;5.29;100.00
53758;BME280;39674;59.860;30.672;2022-11-09T08:08:24;100295.16;;;4.88;100.00
53758;BME280;39674;59.860;30.672;2022-11-09T08:11:00;100404.47;;;5.57;100.00
53758;BME280;39674;59.860;30.672;2022-11-09T08:13:31;100334.59;;;5.09;100.00
53758;BME280;39674;59.860;30.672;2022-11-09T08:16:10;100336.84;;;5.18;100.00
53758;BME280;39674;59.860;30.672;2022-11-09T08:18:47;100312.88;;;5.05;100.00
53758;BME280;39674;59.860;30.672;2022-11-09T08:21:26;100281.94;;;4.91;100.00
53758;BME280;39674;59.860;30.672;2022-11-09T08:24:16;100305.88;;;5.06;100.00
53758;BME280;39674;59.860;30.672;2022-11-09T08:26:55;100338.03;;;5.35;100.00
53758;BME280;39674;59.860;30.672;2022-11-09T08:29:36;100328.63;;;5.29;100.00
53758;BME280;39674;59.860;30.672;2022-11-09T08:32:13;100314.31;;;5.14;100.00
53758;BME280;39674;59.860;30.672;2022-11-09T08:34:52;100275.44;;;5.03;100.00
53758;BME280;39674;59.860;30.672;2022-11-09T08:40:18;100352.13;;;5.56;100.00
53758;BME280;39674;59.860;30.672;2022-11-09T08:43:06;100352.97;;;5.56;100.00
53758;BME280;39674;59.860;30.672;2022-11-09T08:45:36;100275.16;;;5.11;100.00
53758;BME280;39674;59.860;30.672;2022-11-09T08:48:14;100278.34;;;5.19;100.00
53758;BME280;39674;59.860;30.672;2022-11-09T08:50:51;100332.88;;;5.57;100.00
53758;BME280;39674;59.860;30.672;2022-11-09T08:53:33;100241.34;;;5.05;100.00
53758;BME280;39674;59.860;30.672;2022-11-09T08:56:21;100263.47;;;5.21;100.00
53758;BME280;39674;59.860;30.672;2022-11-09T08:59:00;100335.22;;;5.65;100.00
53758;BME280;39674;59.860;30.672;2022-11-09T09:01:31;100334.31;;;5.66;100.00
53758;BME280;39674;59.860;30.672;2022-11-09T09:04:09;100299.22;;;5.46;100.00
53758;BME280;39674;59.860;30.672;2022-11-09T09:06:46;100348.66;;;5.79;100.00
53758;BME280;39674;59.860;30.672;2022-11-09T09:09:36;100336.56;;;5.75;100.00
53758;BME280;39674;59.860;30.672;2022-11-09T09:12:24;100368.94;;;5.98;100.00
53758;BME280;39674;59.860;30.672;2022-11-09T09:15:08;100374.06;;;6.01;100.00
53758;BME280;39674;59.860;30.672;2022-11-09T09:17:43;100309.91;;;5.63;100.00
53758;BME280;39674;59.860;30.672;2022-11-09T09:20:16;100304.66;;;5.63;100.00
53758;BME280;39674;59.860;30.672;2022-11-09T09:22:51;100373.84;;;6.07;100.00
53758;BME280;39674;59.860;30.672;2022-11-09T09:25:23;100281.66;;;5.48;100.00
53758;BME280;39674;59.860;30.672;2022-11-09T09:27:55;100339.66;;;5.86;100.00
53758;BME280;39674;59.860;30.672;2022-11-09T09:30:29;100371.53;;;6.21;100.00
53758;BME280;39674;59.860;30.672;2022-11-09T09:33:18;100368.25;;;6.16;100.00
53758;BME280;39674;59.860;30.672;2022-11-09T09:36:05;100320.16;;;5.93;100.00
53758;BME280;39674;59.860;30.672;2022-11-09T09:38:44;100324.47;;;5.94;100.00
53758;BME280;39674;59.860;30.672;2022-11-09T09:41:38;100324.31;;;5.99;100.00
53758;BME280;39674;59.860;30.672;2022-11-09T09:44:29;100364.34;;;6.26;100.00
53758;BME280;39674;59.860;30.672;2022-11-09T09:47:12;100280.38;;;5.82;100.00
53758;BME280;39674;59.860;30.672;2022-11-09T09:49:55;100313.72;;;6.02;100.00
53758;BME280;39674;59.860;30.672;2022-11-09T09:52:46;100284.03;;;5.78;100.00
53758;BME280;39674;59.860;30.672;2022-11-09T09:55:26;100316.28;;;6.04;100.00
53758;BME280;39674;59.860;30.672;2022-11-09T09:58:22;100299.19;;;5.93;100.00
53758;BME280;39674;59.860;30.672;2022-11-09T10:01:03;100320.44;;;6.09;100.00
53758;BME280;39674;59.860;30.672;2022-11-09T10:03:47;100328.91;;;6.16;100.00
53758;BME280;39674;59.860;30.672;2022-11-09T10:06:38;100321.03;;;6.16;100.00
53758;BME280;39674;59.860;30.672;2022-11-09T10:09:29;100367.03;;;6.47;100.00
53758;BME280;39674;59.860;30.672;2022-11-09T10:12:10;100242.78;;;5.83;100.00
53758;BME280;39674;59.860;30.672;2022-11-09T10:15:14;100288.91;;;6.11;100.00
53758;BME280;39674;59.860;30.672;2022-11-09T10:18:17;100238.94;;;5.92;100.00
53758;BME280;39674;59.860;30.672;2022-11-09T10:21:08;100316.28;;;6.48;100.00
53758;BME280;39674;59.860;30.672;2022-11-09T10:24:09;100310.91;;;6.51;100.00
53758;BME280;39674;59.860;30.672;2022-11-09T10:26:57;100291.88;;;6.46;100.00
53758;BME280;39674;59.860;30.672;2022-11-09T10:29:39;100310.00;;;6.73;100.00
53758;BME280;39674;59.860;30.672;2022-11-09T10:32:26;100266.91;;;6.58;100.00
53758;BME280;39674;59.860;30.672;2022-11-09T10:35:37;100265.00;;;6.62;100.00
53758;BME280;39674;59.860;30.672;2022-11-09T10:38:20;100290.91;;;6.90;100.00
53758;BME280;39674;59.860;30.672;2022-11-09T10:41:20;100306.75;;;7.09;100.00
53758;BME280;39674;59.860;30.672;2022-11-09T10:44:50;100306.41;;;7.17;100.00
53758;BME280;39674;59.860;30.672;2022-11-09T10:47:57;100323.25;;;7.32;100.00
53758;BME280;39674;59.860;30.672;2022-11-09T10:50:51;100321.16;;;7.40;100.00
53758;BME280;39674;59.860;30.672;2022-11-09T10:54:17;100313.91;;;7.45;100.00
53758;BME280;39674;59.860;30.672;2022-11-09T10:57:21;100321.47;;;7.53;100.00
53758;BME280;39674;59.860;30.672;2022-11-09T11:00:40;100355.03;;;7.86;100.00
53758;BME280;39674;59.860;30.672;2022-11-09T11:03:56;100323.31;;;7.70;100.00
53758;BME280;39674;59.860;30.672;2022-11-09T11:06:46;100256.53;;;7.36;100.00
53758;BME280;39674;59.860;30.672;2022-11-09T11:09:50;100329.06;;;7.78;100.00
53758;BME280;39674;59.860;30.672;2022-11-09T11:12:41;100317.50;;;7.82;100.00
53758;BME280;39674;59.860;30.672;2022-11-09T11:18:51;100364.44;;;8.09;100.00
53758;BME280;39674;59.860;30.672;2022-11-09T11:22:22;100362.94;;;8.23;100.00
53758;BME280;39674;59.860;30.672;2022-11-09T11:25:53;100359.09;;;8.30;100.00
53758;BME280;39674;59.860;30.672;2022-11-09T11:28:49;100330.13;;;8.12;100.00
53758;BME280;39674;59.860;30.672;2022-11-09T11:31:42;100319.59;;;8.12;100.00
53758;BME280;39674;59.860;30.672;2022-11-09T11:34:36;100352.78;;;8.34;100.00
53758;BME280;39674;59.860;30.672;2022-11-09T11:37:33;100297.44;;;7.99;100.00
53758;BME280;39674;59.860;30.672;2022-11-09T11:40:48;100323.66;;;8.19;100.00
53758;BME280;39674;59.860;30.672;2022-11-09T11:43:58;100316.91;;;8.14;100.00
53758;BME280;39674;59.860;30.672;2022-11-09T11:47:07;100257.75;;;7.86;100.00
53758;BME280;39674;59.860;30.672;2022-11-09T11:50:27;100320.84;;;8.23;100.00
53758;BME280;39674;59.860;30.672;2022-11-09T11:53:44;100261.03;;;7.90;100.00
53758;BME280;39674;59.860;30.672;2022-11-09T11:56:56;100332.66;;;8.33;100.00
53758;BME280;39674;59.860;30.672;2022-11-09T12:00:01;100335.28;;;8.33;100.00
53758;BME280;39674;59.860;30.672;2022-11-09T12:03:29;100361.38;;;8.57;100.00
53758;BME280;39674;59.860;30.672;2022-11-09T12:06:41;100366.34;;;8.63;100.00
53758;BME280;39674;59.860;30.672;2022-11-09T12:09:58;100368.75;;;8.67;100.00
53758;BME280;39674;59.860;30.672;2022-11-09T12:13:05;100300.31;;;8.31;100.00
53758;BME280;39674;59.860;30.672;2022-11-09T12:16:05;100291.00;;;8.24;100.00
53758;BME280;39674;59.860;30.672;2022-11-09T12:19:35;100258.47;;;8.07;100.00
53758;BME280;39674;59.860;30.672;2022-11-09T12:22:45;100328.94;;;8.56;100.00
53758;BME280;39674;59.860;30.672;2022-11-09T12:25:45;100328.78;;;8.59;100.00
53758;BME280;39674;59.860;30.672;2022-11-09T12:29:14;100335.22;;;8.71;100.00
53758;BME280;39674;59.860;30.672;2022-11-09T12:32:13;100366.69;;;8.92;100.00
53758;BME280;39674;59.860;30.672;2022-11-09T12:35:17;100250.78;;;8.22;100.00
53758;BME280;39674;59.860;30.672;2022-11-09T12:38:14;100273.78;;;8.35;100.00
53758;BME280;39674;59.860;30.672;2022-11-09T12:41:26;100359.00;;;8.87;100.00
53758;BME280;39674;59.860;30.672;2022-11-09T12:44:45;100310.44;;;8.58;100.00
53758;BME280;39674;59.860;30.672;2022-11-09T12:47:47;100269.91;;;8.25;100.00
53758;BME280;39674;59.860;30.672;2022-11-09T12:50:43;100277.25;;;8.36;100.00
53758;BME280;39674;59.860;30.672;2022-11-09T12:53:36;100287.47;;;8.42;100.00
53758;BME280;39674;59.860;30.672;2022-11-09T12:56:32;100383.88;;;8.99;100.00
53758;BME280;39674;59.860;30.672;2022-11-09T12:59:45;100273.78;;;8.35;100.00
53758;BME280;39674;59.860;30.672;2022-11-09T13:02:38;100325.00;;;8.65;100.00
53758;BME280;39674;59.860;30.672;2022-11-09T13:05:33;100358.16;;;8.87;100.00
53758;BME280;39674;59.860;30.672;2022-11-09T13:08:28;100382.00;;;9.01;100.00
53758;BME280;39674;59.860;30.672;2022-11-09T13:11:39;100330.56;;;8.76;100.00
53758;BME280;39674;59.860;30.672;2022-11-09T13:14:40;100318.72;;;8.67;100.00
53758;BME280;39674;59.860;30.672;2022-11-09T13:18:02;100282.88;;;8.47;100.00
53758;BME280;39674;59.860;30.672;2022-11-09T13:25:43;100331.84;;;8.87;100.00
53758;BME280;39674;59.860;30.672;2022-11-09T13:29:15;100294.63;;;8.58;100.00
53758;BME280;39674;59.860;30.672;2022-11-09T13:36:24;100354.44;;;8.91;100.00
53758;BME280;39674;59.860;30.672;2022-11-09T13:39:42;100388.53;;;9.11;100.00
53758;BME280;39674;59.860;30.672;2022-11-09T13:42:57;100304.03;;;8.63;100.00
53758;BME280;39674;59.860;30.672;2022-11-09T13:46:24;100295.44;;;8.60;100.00
53758;BME280;39674;59.860;30.672;2022-11-09T13:49:41;100384.09;;;9.12;100.00
53758;BME280;39674;59.860;30.672;2022-11-09T13:52:51;100324.25;;;8.80;100.00
53758;BME280;39674;59.860;30.672;2022-11-09T13:55:54;100336.94;;;8.90;100.00
53758;BME280;39674;59.860;30.672;2022-11-09T13:58:58;100333.69;;;8.85;100.00
53758;BME280;39674;59.860;30.672;2022-11-09T14:01:53;100332.69;;;8.87;100.00
53758;BME280;39674;59.860;30.672;2022-11-09T14:04:46;100376.13;;;9.13;100.00
53758;BME280;39674;59.860;30.672;2022-11-09T14:07:43;100325.69;;;8.86;100.00
53758;BME280;39674;59.860;30.672;2022-11-09T14:10:42;100276.53;;;8.51;100.00
53758;BME280;39674;59.860;30.672;2022-11-09T14:17:17;100345.63;;;8.92;100.00
53758;BME280;39674;59.860;30.672;2022-11-09T14:20:20;100354.91;;;8.99;100.00
53758;BME280;39674;59.860;30.672;2022-11-09T14:23:28;100362.81;;;8.99;100.00
53758;BME280;39674;59.860;30.672;2022-11-09T14:26:27;100350.00;;;8.91;100.00
53758;BME280;39674;59.860;30.672;2022-11-09T14:29:28;100352.41;;;8.96;100.00
53758;BME280;39674;59.860;30.672;2022-11-09T14:32:33;100315.25;;;8.67;100.00
53758;BME280;39674;59.860;30.672;2022-11-09T14:35:33;100284.41;;;8.51;100.00
53758;BME280;39674;59.860;30.672;2022-11-09T14:38:34;100277.44;;;8.50;100.00